createdAt,value
2023-07-08T00:00:42.351Z,5
2023-07-08T00:03:10.725Z,8
2023-07-08T00:04:24.802Z,6
2023-07-08T00:05:38.913Z,6
2023-07-08T00:08:07.152Z,8
2023-07-08T00:09:21.300Z,6
2023-07-08T00:10:35.478Z,5
2023-07-08T00:13:03.757Z,7
2023-07-08T00:14:17.803Z,5
2023-07-08T00:15:31.910Z,7
2023-07-08T00:18:00.317Z,6
2023-07-08T00:19:14.335Z,5
2023-07-08T00:20:28.577Z,6
2023-07-08T00:21:42.696Z,6
2023-07-08T00:24:10.848Z,6
2023-07-08T00:25:25.025Z,7
2023-07-08T00:26:39.155Z,5
2023-07-08T00:29:07.406Z,6
2023-07-08T00:30:21.521Z,6
2023-07-08T00:31:35.758Z,7
2023-07-08T00:34:03.976Z,7
2023-07-08T00:35:18.073Z,5
2023-07-08T00:36:32.209Z,6
2023-07-08T00:39:00.520Z,6
2023-07-08T00:40:14.630Z,6
2023-07-08T00:41:28.810Z,7
2023-07-08T00:42:42.877Z,8
2023-07-08T00:45:11.144Z,6
2023-07-08T00:46:25.310Z,9
2023-07-08T00:47:39.610Z,6
2023-07-08T00:50:07.698Z,5
2023-07-08T00:51:21.831Z,5
2023-07-08T00:52:35.920Z,6
2023-07-08T00:55:04.323Z,8
2023-07-08T00:56:18.472Z,6
2023-07-08T00:57:32.491Z,6
2023-07-08T01:00:00.935Z,5
2023-07-08T01:01:14.884Z,7
2023-07-08T01:02:29.102Z,5
2023-07-08T01:03:43.219Z,5
2023-07-08T01:06:11.428Z,5
2023-07-08T01:07:25.590Z,6
2023-07-08T01:08:39.728Z,6
2023-07-08T01:11:08.178Z,5
2023-07-08T01:12:22.198Z,6
2023-07-08T01:13:36.251Z,5
2023-07-08T01:16:04.592Z,6
2023-07-08T01:17:18.621Z,7
2023-07-08T01:18:32.832Z,6
2023-07-08T01:21:01.541Z,6
2023-07-08T01:22:15.157Z,5
2023-07-08T01:23:29.392Z,6
2023-07-08T01:24:43.431Z,5
2023-07-08T01:27:11.693Z,6
2023-07-08T01:28:25.833Z,6
2023-07-08T01:29:39.943Z,6
2023-07-08T01:32:08.296Z,6
2023-07-08T01:33:22.386Z,5
2023-07-08T01:34:36.490Z,5
2023-07-08T01:37:04.848Z,9
2023-07-08T01:38:18.928Z,6
2023-07-08T01:39:33.082Z,5
2023-07-08T01:42:01.474Z,5
2023-07-08T01:43:15.440Z,7
2023-07-08T01:44:29.616Z,6
2023-07-08T01:45:43.892Z,5
2023-07-08T01:48:11.946Z,6
2023-07-08T01:49:26.091Z,5
2023-07-08T01:50:40.299Z,5
2023-07-08T01:53:08.492Z,6
2023-07-08T01:54:22.715Z,6
2023-07-08T01:55:36.768Z,5
2023-07-08T01:58:05.047Z,5
2023-07-08T01:59:19.151Z,6
2023-07-08T02:00:33.298Z,6
2023-07-08T02:03:01.664Z,5
2023-07-08T02:04:15.670Z,4
2023-07-08T02:05:29.953Z,4
2023-07-08T02:06:43.984Z,6
2023-07-08T02:09:12.228Z,7
2023-07-08T02:10:26.421Z,5
2023-07-08T02:11:40.456Z,6
2023-07-08T02:14:08.871Z,5
2023-07-08T02:15:22.881Z,6
2023-07-08T02:16:37.177Z,5
2023-07-08T02:19:05.380Z,5
2023-07-08T02:20:19.534Z,5
2023-07-08T02:21:33.638Z,6
2023-07-08T02:24:01.814Z,5
2023-07-08T02:25:15.959Z,7
2023-07-08T02:26:30.100Z,7
2023-07-08T02:28:58.358Z,5
2023-07-08T02:30:12.500Z,5
2023-07-08T02:31:26.626Z,5
2023-07-08T02:35:09.064Z,7
2023-07-08T02:36:23.176Z,6
2023-07-08T02:37:37.273Z,6
2023-07-08T02:40:05.645Z,5
2023-07-08T02:41:19.797Z,5
2023-07-08T02:42:33.848Z,6
2023-07-08T02:45:02.052Z,5
2023-07-08T02:46:16.244Z,9
2023-07-08T02:47:30.384Z,5
2023-07-08T02:49:58.635Z,4
2023-07-08T02:51:12.856Z,7
2023-07-08T02:52:26.875Z,5
2023-07-08T02:53:41.003Z,6
2023-07-08T02:57:23.445Z,6
2023-07-08T02:58:37.931Z,6
2023-07-08T02:59:51.917Z,5
2023-07-08T03:01:05.872Z,4
2023-07-08T03:02:20.058Z,5
2023-07-08T03:03:34.066Z,4
2023-07-08T03:06:02.362Z,7
2023-07-08T03:07:16.531Z,5
2023-07-08T03:08:30.640Z,6
2023-07-08T03:10:59.286Z,6
2023-07-08T03:12:13.066Z,5
2023-07-08T03:13:27.284Z,5
2023-07-08T03:14:41.338Z,6
2023-07-08T03:17:09.761Z,6
2023-07-08T03:18:23.738Z,5
2023-07-08T03:19:37.895Z,7
2023-07-08T03:22:06.137Z,5
2023-07-08T03:23:20.329Z,6
2023-07-08T03:24:34.412Z,6
2023-07-08T03:27:02.691Z,6
2023-07-08T03:28:16.808Z,5
2023-07-08T03:29:30.921Z,4
2023-07-08T03:30:45.167Z,7
2023-07-08T03:31:59.218Z,5
2023-07-08T03:33:13.354Z,6
2023-07-08T03:34:27.606Z,5
2023-07-08T03:35:41.562Z,7
2023-07-08T03:38:09.922Z,5
2023-07-08T03:39:23.978Z,5
2023-07-08T03:40:38.184Z,5
2023-07-08T03:43:06.407Z,5
2023-07-08T03:44:20.716Z,5
2023-07-08T03:45:34.747Z,5
2023-07-08T03:48:03.009Z,5
2023-07-08T03:49:17.065Z,5
2023-07-08T03:50:31.140Z,5
2023-07-08T03:52:59.542Z,5
2023-07-08T03:54:13.623Z,5
2023-07-08T03:55:27.878Z,5
2023-07-08T03:56:42.411Z,5
2023-07-08T03:59:10.177Z,5
2023-07-08T04:00:24.279Z,5
2023-07-08T04:01:38.522Z,7
2023-07-08T04:04:06.708Z,5
2023-07-08T04:05:20.789Z,4
2023-07-08T04:06:35.023Z,6
2023-07-08T04:09:03.198Z,6
2023-07-08T04:15:59.361Z,6
2023-07-08T04:16:36.338Z,6
2023-07-08T04:19:04.553Z,7
2023-07-08T04:20:18.700Z,9
2023-07-08T04:21:32.817Z,5
2023-07-08T04:24:00.968Z,6
2023-07-08T04:25:15.243Z,5
2023-07-08T04:26:29.295Z,13
2023-07-08T04:27:43.448Z,4
2023-07-08T04:30:12.043Z,5
2023-07-08T04:31:25.917Z,6
2023-07-08T04:32:40.848Z,5
2023-07-08T04:35:08.238Z,6
2023-07-08T04:36:22.316Z,5
2023-07-08T04:37:36.476Z,5
2023-07-08T04:40:04.900Z,4
2023-07-08T04:41:18.924Z,4
2023-07-08T04:42:32.994Z,6
2023-07-08T04:45:01.372Z,6
2023-07-08T04:46:15.421Z,6
2023-07-08T04:47:30.029Z,6
2023-07-08T04:48:43.754Z,4
2023-07-08T04:51:11.923Z,6
2023-07-08T04:52:26.056Z,6
2023-07-08T04:53:40.589Z,5
2023-07-08T04:56:08.481Z,6
2023-07-08T04:57:22.615Z,5
2023-07-08T04:58:36.723Z,5
2023-07-08T05:01:05.070Z,5
2023-07-08T05:02:19.150Z,5
2023-07-08T05:03:33.464Z,6
2023-07-08T05:06:01.518Z,5
2023-07-08T05:07:15.724Z,5
2023-07-08T05:08:29.861Z,5
2023-07-08T05:10:58.901Z,5
2023-07-08T05:12:12.185Z,6
2023-07-08T05:13:26.362Z,5
2023-07-08T05:14:40.449Z,6
2023-07-08T05:17:08.736Z,6
2023-07-08T05:18:22.942Z,5
2023-07-08T05:19:37.007Z,6
2023-07-08T05:22:05.278Z,6
2023-07-08T05:23:19.554Z,5
2023-07-08T05:24:33.529Z,5
2023-07-08T05:27:01.784Z,5
2023-07-08T05:28:15.945Z,4
2023-07-08T05:29:30.058Z,4
2023-07-08T05:30:44.190Z,8
2023-07-08T05:33:12.531Z,6
2023-07-08T05:34:26.684Z,5
2023-07-08T05:35:40.735Z,7
2023-07-08T05:38:09.045Z,4
2023-07-08T05:39:23.223Z,5
2023-07-08T05:40:37.260Z,6
2023-07-08T05:43:05.623Z,5
2023-07-08T05:44:19.663Z,5
2023-07-08T05:45:33.874Z,6
2023-07-08T05:48:02.148Z,5
2023-07-08T05:49:16.197Z,5
2023-07-08T05:50:30.293Z,5
2023-07-08T05:52:58.757Z,6
2023-07-08T05:54:12.750Z,5
2023-07-08T05:55:26.854Z,4
2023-07-08T05:56:40.997Z,5
2023-07-08T05:59:09.306Z,5
2023-07-08T06:00:37.334Z,5
2023-07-08T06:01:37.591Z,5
2023-07-08T06:04:05.897Z,5
2023-07-08T06:05:19.928Z,5
2023-07-08T06:06:34.122Z,4
2023-07-08T06:09:02.306Z,5
2023-07-08T06:10:16.645Z,6
2023-07-08T06:11:32.971Z,6
2023-07-08T06:12:44.820Z,6
2023-07-08T06:15:12.987Z,9
2023-07-08T06:16:39.406Z,4
2023-07-08T06:17:41.344Z,5
2023-07-08T06:20:09.617Z,5
2023-07-08T06:21:23.671Z,7
2023-07-08T06:22:46.908Z,4
2023-07-08T06:25:06.059Z,5
2023-07-08T06:26:20.220Z,5
2023-07-08T06:27:34.609Z,5
2023-07-08T06:30:02.608Z,5
2023-07-08T06:31:16.753Z,5
2023-07-08T06:32:30.885Z,4
2023-07-08T06:34:59.114Z,6
2023-07-08T06:36:14.465Z,6
2023-07-08T06:37:32.518Z,6
2023-07-08T06:38:41.670Z,6
2023-07-08T06:41:09.887Z,5
2023-07-08T06:42:24.157Z,6
2023-07-08T06:43:38.120Z,6
2023-07-08T06:46:06.342Z,5
2023-07-08T06:47:20.424Z,5
2023-07-08T06:48:34.690Z,5
2023-07-08T06:51:03.178Z,6
2023-07-08T06:52:16.989Z,5
2023-07-08T06:53:31.110Z,5
2023-07-08T06:55:59.436Z,6
2023-07-08T06:57:13.554Z,6
2023-07-08T06:58:27.796Z,6
2023-07-08T06:59:42.350Z,6
2023-07-08T07:02:10.082Z,6
2023-07-08T07:03:24.245Z,6
2023-07-08T07:04:38.368Z,7
2023-07-08T07:07:06.674Z,8
2023-07-08T07:08:20.761Z,6
2023-07-08T07:09:34.943Z,5
2023-07-08T07:12:03.239Z,5
2023-07-08T07:13:17.320Z,5
2023-07-08T07:17:08.433Z,7
2023-07-08T07:18:13.859Z,6
2023-07-08T07:19:28.032Z,5
2023-07-08T07:20:42.206Z,6
2023-07-08T07:23:10.349Z,5
2023-07-08T07:24:24.581Z,8
2023-07-08T07:25:38.694Z,6
2023-07-08T07:28:06.910Z,6
2023-07-08T07:29:21.007Z,6
2023-07-08T07:30:35.143Z,6
2023-07-08T07:33:03.460Z,6
2023-07-08T07:34:17.556Z,6
2023-07-08T07:35:31.765Z,5
2023-07-08T07:38:00.109Z,6
2023-07-08T07:39:14.091Z,6
2023-07-08T07:40:28.285Z,7
2023-07-08T07:41:42.691Z,7
2023-07-08T07:44:10.944Z,5
2023-07-08T07:45:24.877Z,6
2023-07-08T07:46:38.960Z,7
2023-07-08T07:49:07.154Z,7
2023-07-08T07:50:21.312Z,7
2023-07-08T07:51:35.438Z,6
2023-07-08T07:54:03.780Z,6
2023-07-08T07:55:17.919Z,6
2023-07-08T07:56:32.066Z,8
2023-07-08T07:57:46.108Z,7
2023-07-08T07:59:00.215Z,6
2023-07-08T08:00:14.371Z,8
2023-07-08T08:01:28.511Z,5
2023-07-08T08:02:42.697Z,6
2023-07-08T08:05:10.905Z,5
2023-07-08T08:06:25.065Z,8
2023-07-08T08:07:39.182Z,8
2023-07-08T08:10:07.423Z,7
2023-07-08T08:11:21.505Z,8
2023-07-08T08:12:48.512Z,9
2023-07-08T08:15:04.067Z,6
2023-07-08T08:16:18.296Z,8
2023-07-08T08:17:32.331Z,6
2023-07-08T08:20:00.505Z,6
2023-07-08T08:21:14.626Z,5
2023-07-08T08:22:28.869Z,6
2023-07-08T08:23:42.983Z,6
2023-07-08T08:26:11.157Z,8
2023-07-08T08:27:25.438Z,7
2023-07-08T08:28:39.566Z,6
2023-07-08T08:31:07.740Z,7
2023-07-08T08:32:21.911Z,7
2023-07-08T08:33:35.930Z,7
2023-07-08T08:36:04.623Z,7
2023-07-08T08:37:18.416Z,5
2023-07-08T08:38:32.536Z,5
2023-07-08T08:41:00.890Z,7
2023-07-08T08:42:14.934Z,5
2023-07-08T08:43:29.104Z,5
2023-07-08T08:44:43.240Z,5
2023-07-08T08:47:11.479Z,6
2023-07-08T08:48:25.637Z,5
2023-07-08T08:49:39.698Z,5
2023-07-08T08:52:07.975Z,6
2023-07-08T08:53:22.189Z,5
2023-07-08T08:54:36.241Z,4
2023-07-08T08:57:04.547Z,7
2023-07-08T08:58:18.668Z,5
2023-07-08T08:59:32.809Z,4
2023-07-08T09:02:01.022Z,4
2023-07-08T09:03:15.277Z,4
2023-07-08T09:04:29.350Z,4
2023-07-08T09:05:43.453Z,5
2023-07-08T09:08:11.650Z,6
2023-07-08T09:09:25.850Z,4
2023-07-08T09:10:40.011Z,5
2023-07-08T09:13:08.243Z,5
2023-07-08T09:14:22.395Z,7
2023-07-08T09:15:36.504Z,4
2023-07-08T09:18:04.863Z,5
2023-07-08T09:19:19.002Z,6
2023-07-08T09:20:33.024Z,5
2023-07-08T09:23:01.400Z,4
2023-07-08T09:24:15.411Z,4
2023-07-08T09:25:29.670Z,6
2023-07-08T09:26:43.698Z,5
2023-07-08T09:29:11.987Z,6
2023-07-08T09:30:26.096Z,6
2023-07-08T09:31:40.278Z,5
2023-07-08T09:34:08.555Z,7
2023-07-08T09:35:22.667Z,5
2023-07-08T09:36:36.830Z,5
2023-07-08T09:39:05.043Z,4
2023-07-08T09:40:19.267Z,6
2023-07-08T09:41:33.380Z,5
2023-07-08T09:44:01.605Z,5
2023-07-08T09:45:15.714Z,8
2023-07-08T09:46:29.944Z,5
2023-07-08T09:47:44.129Z,6
2023-07-08T09:50:12.361Z,6
2023-07-08T09:51:26.361Z,5
2023-07-08T09:52:40.571Z,4
2023-07-08T09:55:08.884Z,5
2023-07-08T09:56:22.895Z,7
2023-07-08T09:57:37.054Z,5
2023-07-08T10:00:05.376Z,7
2023-07-08T10:01:19.549Z,5
2023-07-08T10:02:33.595Z,6
2023-07-08T10:05:01.826Z,4
2023-07-08T10:06:15.973Z,6
2023-07-08T10:07:30.237Z,4
2023-07-08T10:08:44.361Z,7
2023-07-08T10:11:12.506Z,5
2023-07-08T10:12:26.739Z,4
2023-07-08T10:13:40.941Z,5
2023-07-08T10:16:09.075Z,7
2023-07-08T10:17:23.180Z,5
2023-07-08T10:18:37.332Z,6
2023-07-08T10:21:05.660Z,5
2023-07-08T10:22:19.693Z,7
2023-07-08T10:23:33.977Z,5
2023-07-08T10:26:02.192Z,5
2023-07-08T10:27:16.251Z,5
2023-07-08T10:28:30.388Z,5
2023-07-08T10:30:59.021Z,5
2023-07-08T10:32:12.838Z,6
2023-07-08T10:33:26.927Z,6
2023-07-08T10:34:41.039Z,7
2023-07-08T10:37:09.340Z,4
2023-07-08T10:38:23.460Z,6
2023-07-08T10:39:37.600Z,4
2023-07-08T10:42:05.893Z,7
2023-07-08T10:43:20.065Z,6
2023-07-08T10:44:34.102Z,5
2023-07-08T10:47:02.390Z,5
2023-07-08T10:48:17.853Z,6
2023-07-08T10:49:30.661Z,6
2023-07-08T10:51:59.116Z,7
2023-07-08T10:53:13.031Z,6
2023-07-08T10:54:27.248Z,8
2023-07-08T10:55:41.453Z,6
2023-07-08T10:58:09.692Z,5
2023-07-08T10:59:23.799Z,6
2023-07-08T11:00:37.867Z,7
2023-07-08T11:03:06.230Z,6
2023-07-08T11:04:20.245Z,5
2023-07-08T11:05:34.429Z,5
2023-07-08T11:08:02.699Z,5
2023-07-08T11:09:35.615Z,4
2023-07-08T11:10:30.960Z,7
2023-07-08T11:12:59.163Z,5
2023-07-08T11:14:13.318Z,5
2023-07-08T11:15:27.419Z,4
2023-07-08T11:16:41.644Z,5
2023-07-08T11:19:09.854Z,6
2023-07-08T11:20:23.995Z,6
2023-07-08T11:21:38.089Z,5
2023-07-08T11:24:06.398Z,5
2023-07-08T11:25:20.517Z,6
2023-07-08T11:26:34.681Z,6
2023-07-08T11:29:02.968Z,8
2023-07-08T11:30:17.035Z,5
2023-07-08T11:31:31.252Z,7
2023-07-08T11:33:59.445Z,5
2023-07-08T11:35:13.559Z,5
2023-07-08T11:36:27.870Z,4
2023-07-08T11:37:41.855Z,5
2023-07-08T11:40:10.184Z,6
2023-07-08T11:41:24.237Z,5
2023-07-08T11:42:38.405Z,8
2023-07-08T11:45:06.630Z,5
2023-07-08T11:46:20.739Z,6
2023-07-08T11:47:35.047Z,5
2023-07-08T11:50:03.183Z,5
2023-07-08T11:51:17.315Z,6
2023-07-08T11:52:31.430Z,6
2023-07-08T11:55:00.247Z,6
2023-07-08T11:56:14.169Z,6
2023-07-08T11:57:28.206Z,7
2023-07-08T11:58:42.166Z,6
2023-07-08T12:01:10.447Z,5
2023-07-08T12:02:24.537Z,7
2023-07-08T12:03:38.673Z,6
2023-07-08T12:06:06.916Z,5
2023-07-08T12:07:21.344Z,7
2023-07-08T12:08:35.258Z,6
2023-07-08T12:11:03.640Z,6
2023-07-08T12:12:17.573Z,6
2023-07-08T12:13:32.131Z,5
2023-07-08T12:15:59.971Z,7
2023-07-08T12:17:14.209Z,6
2023-07-08T12:18:28.253Z,7
2023-07-08T12:19:42.378Z,8
2023-07-08T12:22:10.646Z,6
2023-07-08T12:23:24.777Z,5
2023-07-08T12:24:41.328Z,6
2023-07-08T12:27:07.185Z,5
2023-07-08T12:28:21.324Z,5
2023-07-08T12:29:35.449Z,5
2023-07-08T12:32:03.769Z,6
2023-07-08T12:33:17.923Z,5
2023-07-08T12:34:32.015Z,6
2023-07-08T12:35:46.101Z,6
2023-07-08T12:37:00.232Z,5
2023-07-08T12:38:14.387Z,7
2023-07-08T12:39:28.589Z,7
2023-07-08T12:40:42.735Z,8
2023-07-08T12:43:11.017Z,6
2023-07-08T12:44:25.053Z,7
2023-07-08T12:45:39.182Z,8
2023-07-08T12:48:07.476Z,6
2023-07-08T12:49:21.591Z,6
2023-07-08T12:50:35.702Z,5
2023-07-08T12:53:05.431Z,6
2023-07-08T12:54:18.116Z,4
2023-07-08T12:55:32.243Z,6
2023-07-08T12:58:00.531Z,6
2023-07-08T12:59:14.675Z,6
2023-07-08T13:00:28.877Z,6
2023-07-08T13:01:43.041Z,5
2023-07-08T13:04:11.293Z,6
2023-07-08T13:05:25.442Z,6
2023-07-08T13:06:39.552Z,9
2023-07-08T13:09:07.800Z,9
2023-07-08T13:10:21.963Z,5
2023-07-08T13:11:36.306Z,7
2023-07-08T13:14:04.384Z,6
2023-07-08T13:15:18.391Z,6
2023-07-08T13:16:32.572Z,5
2023-07-08T13:19:00.785Z,7
2023-07-08T13:20:14.968Z,6
2023-07-08T13:21:29.072Z,5
2023-07-08T13:22:43.219Z,7
2023-07-08T13:25:11.477Z,6
2023-07-08T13:26:25.570Z,7
2023-07-08T13:27:39.779Z,5
2023-07-08T13:30:08.097Z,7
2023-07-08T13:31:24.572Z,6
2023-07-08T13:32:36.337Z,5
2023-07-08T13:35:04.583Z,7
2023-07-08T13:36:18.649Z,7
2023-07-08T13:37:32.801Z,5
2023-07-08T13:40:01.023Z,6
2023-07-08T13:41:15.170Z,7
2023-07-08T13:42:29.344Z,5
2023-07-08T13:43:43.480Z,4
2023-07-08T13:46:11.780Z,6
2023-07-08T13:47:25.882Z,6
2023-07-08T13:48:39.993Z,5
2023-07-08T13:51:08.295Z,6
2023-07-08T13:52:22.421Z,6
2023-07-08T13:53:36.525Z,6
2023-07-08T13:56:04.845Z,8
2023-07-08T13:57:18.990Z,6
2023-07-08T13:58:33.084Z,5
2023-07-08T14:01:01.702Z,7
2023-07-08T14:02:15.515Z,7
2023-07-08T14:03:29.793Z,9
2023-07-08T14:05:57.876Z,6
2023-07-08T14:07:12.096Z,4
2023-07-08T14:08:26.153Z,5
2023-07-08T14:09:40.439Z,6
2023-07-08T14:12:08.620Z,6
2023-07-08T14:13:22.779Z,5
2023-07-08T14:14:36.795Z,8
2023-07-08T14:17:05.162Z,6
2023-07-08T14:18:19.305Z,6
2023-07-08T14:19:33.338Z,5
2023-07-08T14:22:01.592Z,6
2023-07-08T14:23:15.724Z,7
2023-07-08T14:24:29.896Z,7
2023-07-08T14:25:44.053Z,6
2023-07-08T14:28:12.314Z,5
2023-07-08T14:29:26.455Z,7
2023-07-08T14:30:40.519Z,6
2023-07-08T14:33:08.867Z,6
2023-07-08T14:34:22.998Z,5
2023-07-08T14:35:37.076Z,4
2023-07-08T14:38:05.452Z,7
2023-07-08T14:39:19.553Z,5
2023-07-08T14:40:33.619Z,7
2023-07-08T14:43:01.976Z,6
2023-07-08T14:44:16.048Z,6
2023-07-08T14:45:30.222Z,6
2023-07-08T14:46:44.282Z,6
2023-07-08T14:49:12.563Z,6
2023-07-08T14:50:26.698Z,7
2023-07-08T14:51:41.486Z,7
2023-07-08T14:54:09.643Z,7
2023-07-08T14:55:23.213Z,11
2023-07-08T14:56:37.384Z,8
2023-07-08T14:59:05.650Z,7
2023-07-08T15:00:19.775Z,7
2023-07-08T15:01:33.887Z,6
2023-07-08T15:04:02.247Z,7
2023-07-08T15:05:16.312Z,7
2023-07-08T15:06:30.467Z,6
2023-07-08T15:08:58.871Z,8
2023-07-08T15:10:12.893Z,5
2023-07-08T15:11:26.976Z,7
2023-07-08T15:12:41.143Z,7
2023-07-08T15:15:09.468Z,8
2023-07-08T15:16:23.625Z,9
2023-07-08T15:17:37.720Z,7
2023-07-08T15:20:05.934Z,8
2023-07-08T15:21:20.148Z,8
2023-07-08T15:22:34.232Z,8
2023-07-08T15:25:02.580Z,6
2023-07-08T15:26:16.596Z,8
2023-07-08T15:27:30.685Z,8
2023-07-08T15:29:59.167Z,7
2023-07-08T15:31:13.150Z,8
2023-07-08T15:32:40.982Z,7
2023-07-08T15:33:41.320Z,6
2023-07-08T15:36:09.663Z,10
2023-07-08T15:37:23.753Z,9
2023-07-08T15:38:37.900Z,7
2023-07-08T15:41:06.165Z,8
2023-07-08T15:42:20.338Z,6
2023-07-08T15:43:34.536Z,7
2023-07-08T15:46:02.816Z,6
2023-07-08T15:47:16.898Z,7
2023-07-08T15:48:31.057Z,6
2023-07-08T15:50:59.698Z,5
2023-07-08T15:52:13.371Z,8
2023-07-08T15:53:27.526Z,7
2023-07-08T15:54:41.609Z,8
2023-07-08T15:57:09.905Z,7
2023-07-08T15:58:24.129Z,8
2023-07-08T15:59:38.593Z,6
2023-07-08T16:02:06.487Z,9
2023-07-08T16:03:20.682Z,7
2023-07-08T16:04:34.720Z,6
2023-07-08T16:07:03.025Z,9
2023-07-08T16:08:17.099Z,6
2023-07-08T16:09:31.230Z,7
2023-07-08T16:11:59.521Z,7
2023-07-08T16:13:13.651Z,6
2023-07-08T16:14:27.859Z,6
2023-07-08T16:15:41.925Z,8
2023-07-08T16:18:10.237Z,8
2023-07-08T16:19:24.314Z,9
2023-07-08T16:20:38.543Z,7
2023-07-08T16:23:06.704Z,6
2023-07-08T16:24:20.835Z,8
2023-07-08T16:25:35.105Z,6
2023-07-08T16:28:03.402Z,5
2023-07-08T16:29:17.414Z,7
2023-07-08T16:30:31.570Z,6
2023-07-08T16:32:59.793Z,7
2023-07-08T16:34:13.912Z,7
2023-07-08T16:35:28.113Z,9
2023-07-08T16:36:42.147Z,7
2023-07-08T16:39:18.672Z,6
2023-07-08T16:40:32.820Z,7
2023-07-08T16:43:01.032Z,10
2023-07-08T16:44:15.199Z,8
2023-07-08T16:45:29.384Z,8
2023-07-08T16:46:43.539Z,8
2023-07-08T16:49:11.708Z,7
2023-07-08T16:50:25.848Z,7
2023-07-08T16:51:40.043Z,9
2023-07-08T16:54:08.241Z,11
2023-07-08T16:55:22.502Z,10
2023-07-08T16:56:37.623Z,10
2023-07-08T16:59:04.812Z,8
2023-07-08T17:00:18.894Z,8
2023-07-08T17:01:33.117Z,7
2023-07-08T17:04:01.365Z,9
2023-07-08T17:05:15.439Z,8
2023-07-08T17:06:29.649Z,9
2023-07-08T17:07:43.748Z,7
2023-07-08T17:10:12.012Z,7
2023-07-08T17:11:26.075Z,7
2023-07-08T17:12:40.472Z,11
2023-07-08T17:15:08.504Z,10
2023-07-08T17:16:22.773Z,12
2023-07-08T17:17:36.882Z,8
2023-07-08T17:20:05.024Z,9
2023-07-08T17:21:19.270Z,10
2023-07-08T17:22:33.310Z,16
2023-07-08T17:25:01.544Z,20
2023-07-08T17:26:15.737Z,15
2023-07-08T17:27:29.944Z,18
2023-07-08T17:28:43.980Z,19
2023-07-08T17:31:12.326Z,14
2023-07-08T17:32:26.442Z,13
2023-07-08T17:33:40.494Z,14
2023-07-08T17:36:08.809Z,15
2023-07-08T17:37:22.947Z,11
2023-07-08T17:38:37.041Z,12
2023-07-08T17:41:05.359Z,15
2023-07-08T17:42:19.500Z,12
2023-07-08T17:43:33.591Z,12
2023-07-08T17:46:02.161Z,12
2023-07-08T17:47:15.984Z,9
2023-07-08T17:48:30.247Z,11
2023-07-08T17:50:58.379Z,10
2023-07-08T17:52:12.597Z,13
2023-07-08T17:53:26.712Z,9
2023-07-08T17:54:40.767Z,10
2023-07-08T17:57:09.145Z,11
2023-07-08T17:58:23.293Z,10
2023-07-08T17:59:37.327Z,10
2023-07-08T18:02:05.638Z,9
2023-07-08T18:03:19.837Z,9
2023-07-08T18:04:33.890Z,11
2023-07-08T18:07:02.176Z,8
2023-07-08T18:08:16.259Z,8
2023-07-08T18:09:30.368Z,8
2023-07-08T18:11:58.915Z,7
2023-07-08T18:13:12.820Z,8
2023-07-08T18:14:26.927Z,8
2023-07-08T18:15:42.077Z,7
2023-07-08T18:18:09.419Z,9
2023-07-08T18:19:23.458Z,7
2023-07-08T18:20:37.651Z,7
2023-07-08T18:23:06.873Z,6
2023-07-08T18:24:19.988Z,6
2023-07-08T18:25:34.192Z,5
2023-07-08T18:28:02.503Z,7
2023-07-08T18:29:17.295Z,6
2023-07-08T18:30:30.635Z,7
2023-07-08T18:32:59.145Z,6
2023-07-08T18:34:13.078Z,6
2023-07-08T18:35:27.230Z,6
2023-07-08T18:36:41.325Z,6
2023-07-08T18:39:09.637Z,5
2023-07-08T18:40:23.783Z,6
2023-07-08T18:41:37.863Z,6
2023-07-08T18:42:52.253Z,6
2023-07-08T18:44:06.128Z,6
2023-07-08T18:45:20.293Z,7
2023-07-08T18:46:34.479Z,7
2023-07-08T18:49:03.354Z,6
2023-07-08T18:50:16.787Z,6
2023-07-08T18:51:30.900Z,7
2023-07-08T18:53:59.356Z,6
2023-07-08T18:55:13.451Z,8
2023-07-08T18:56:27.555Z,6
2023-07-08T18:57:41.650Z,7
2023-07-08T19:00:09.856Z,7
2023-07-08T19:01:24.024Z,6
2023-07-08T19:02:38.183Z,7
2023-07-08T19:05:06.386Z,7
2023-07-08T19:06:20.509Z,8
2023-07-08T19:07:34.678Z,7
2023-07-08T19:10:02.958Z,9
2023-07-08T19:11:17.061Z,8
2023-07-08T19:12:31.178Z,8
2023-07-08T19:13:45.451Z,6
2023-07-08T19:14:59.499Z,9
2023-07-08T19:16:13.662Z,6
2023-07-08T19:17:27.818Z,9
2023-07-08T19:18:41.849Z,8
2023-07-08T19:21:10.188Z,7
2023-07-08T19:22:24.352Z,8
2023-07-08T19:23:38.491Z,5
2023-07-08T19:26:06.662Z,7
2023-07-08T19:27:20.819Z,9
2023-07-08T19:28:34.945Z,7
2023-07-08T19:31:03.377Z,7
2023-07-08T19:32:17.356Z,8
2023-07-08T19:33:31.455Z,8
2023-07-08T19:35:59.923Z,7
2023-07-08T19:37:13.905Z,9
2023-07-08T19:38:28.026Z,7
2023-07-08T19:39:42.150Z,8
2023-07-08T19:42:10.380Z,6
2023-07-08T19:43:24.629Z,7
2023-07-08T19:44:38.665Z,10
2023-07-08T19:47:06.976Z,10
2023-07-08T19:48:21.116Z,10
2023-07-08T19:49:35.204Z,8
2023-07-08T19:52:03.545Z,9
2023-07-08T19:53:17.696Z,8
2023-07-08T19:54:31.726Z,8
2023-07-08T19:56:59.993Z,8
2023-07-08T19:58:14.138Z,10
2023-07-08T19:59:28.364Z,9
2023-07-08T20:00:42.392Z,9
2023-07-08T20:03:10.740Z,7
2023-07-08T20:04:24.829Z,8
2023-07-08T20:05:38.964Z,7
2023-07-08T20:08:07.246Z,8
2023-07-08T20:09:21.316Z,7
2023-07-08T20:10:35.487Z,8
2023-07-08T20:13:03.735Z,7
2023-07-08T20:14:17.930Z,8
2023-07-08T20:15:32.001Z,9
2023-07-08T20:18:00.342Z,8
2023-07-08T20:19:14.386Z,8
2023-07-08T20:20:28.606Z,7
2023-07-08T20:21:42.739Z,8
2023-07-08T20:24:10.900Z,9
2023-07-08T20:25:25.154Z,6
2023-07-08T20:26:39.314Z,8
2023-07-08T20:29:07.470Z,9
2023-07-08T20:30:21.572Z,7
2023-07-08T20:31:35.796Z,8
2023-07-08T20:34:04.033Z,6
2023-07-08T20:35:18.129Z,8
2023-07-08T20:36:32.307Z,10
2023-07-08T20:37:46.408Z,6
2023-07-08T20:39:00.493Z,6
2023-07-08T20:40:14.652Z,9
2023-07-08T20:41:28.851Z,8
2023-07-08T20:42:42.941Z,7
2023-07-08T20:45:11.170Z,7
2023-07-08T20:46:25.435Z,6
2023-07-08T20:47:39.576Z,10
2023-07-08T20:50:07.749Z,7
2023-07-08T20:51:21.866Z,9
2023-07-08T20:52:36.034Z,7
2023-07-08T20:55:04.397Z,7
2023-07-08T20:56:18.504Z,7
2023-07-08T20:57:32.641Z,7
2023-07-08T21:00:00.785Z,6
2023-07-08T21:01:15.017Z,7
2023-07-08T21:02:29.085Z,7
2023-07-08T21:03:43.242Z,6
2023-07-08T21:06:11.442Z,6
2023-07-08T21:07:25.600Z,6
2023-07-08T21:08:39.767Z,7
2023-07-08T21:11:08.102Z,5
2023-07-08T21:12:22.140Z,7
2023-07-08T21:13:36.291Z,6
2023-07-08T21:16:05.297Z,8
2023-07-08T21:17:18.753Z,7
2023-07-08T21:18:32.879Z,7
2023-07-08T21:21:01.053Z,7
2023-07-08T21:22:15.216Z,5
2023-07-08T21:23:29.430Z,5
2023-07-08T21:24:43.467Z,7
2023-07-08T21:27:11.745Z,7
2023-07-08T21:28:25.907Z,6
2023-07-08T21:29:39.991Z,7
2023-07-08T21:32:08.322Z,6
2023-07-08T21:33:22.433Z,8
2023-07-08T21:34:36.559Z,7
2023-07-08T21:37:04.899Z,8
2023-07-08T21:38:18.951Z,5
2023-07-08T21:39:33.115Z,7
2023-07-08T21:42:01.337Z,7
2023-07-08T21:43:15.475Z,9
2023-07-08T21:44:29.635Z,9
2023-07-08T21:45:43.790Z,7
2023-07-08T21:48:12.038Z,6
2023-07-08T21:49:26.141Z,7
2023-07-08T21:50:40.277Z,6
2023-07-08T21:53:08.533Z,7
2023-07-08T21:54:22.770Z,6
2023-07-08T21:55:36.836Z,9
2023-07-08T21:58:05.078Z,9
2023-07-08T21:59:19.308Z,7
2023-07-08T22:00:33.410Z,8
2023-07-08T22:03:01.642Z,6
2023-07-08T22:04:15.817Z,6
2023-07-08T22:05:29.961Z,7
2023-07-08T22:06:44.019Z,7
2023-07-08T22:09:12.286Z,7
2023-07-08T22:10:26.485Z,9
2023-07-08T22:11:40.544Z,7
2023-07-08T22:14:09.035Z,5
2023-07-08T22:15:23.182Z,7
2023-07-08T22:16:37.246Z,7
2023-07-08T22:19:05.422Z,7
2023-07-08T22:20:19.500Z,7
2023-07-08T22:21:33.651Z,10
2023-07-08T22:24:01.872Z,7
2023-07-08T22:25:16.021Z,7
2023-07-08T22:26:30.133Z,8
2023-07-08T22:28:58.425Z,7
2023-07-08T22:30:12.610Z,7
2023-07-08T22:31:26.882Z,5
2023-07-08T22:32:40.862Z,8
2023-07-08T22:35:09.164Z,6
2023-07-08T22:36:23.260Z,7
2023-07-08T22:37:37.358Z,7
2023-07-08T22:40:06.895Z,7
2023-07-08T22:41:19.755Z,7
2023-07-08T22:42:34.000Z,7
2023-07-08T22:45:02.147Z,8
2023-07-08T22:46:16.325Z,10
2023-07-08T22:47:30.479Z,8
2023-07-08T22:49:58.690Z,7
2023-07-08T22:51:12.876Z,7
2023-07-08T22:52:26.978Z,7
2023-07-08T22:53:41.122Z,7
2023-07-08T22:56:09.428Z,7
2023-07-08T22:57:23.545Z,7
2023-07-08T22:58:37.638Z,10
2023-07-08T23:01:05.930Z,7
2023-07-08T23:02:20.231Z,8
2023-07-08T23:03:34.346Z,7
2023-07-08T23:06:02.741Z,8
2023-07-08T23:07:16.579Z,6
2023-07-08T23:08:30.673Z,7
2023-07-08T23:10:59.154Z,7
2023-07-08T23:12:13.090Z,6
2023-07-08T23:13:27.224Z,6
2023-07-08T23:14:41.403Z,8
2023-07-08T23:17:09.685Z,7
2023-07-08T23:18:23.875Z,9
2023-07-08T23:19:37.948Z,7
2023-07-08T23:22:06.158Z,8
2023-07-08T23:23:20.278Z,7
2023-07-08T23:24:34.436Z,7
2023-07-08T23:27:02.719Z,7
2023-07-08T23:28:16.853Z,9
2023-07-08T23:29:31.006Z,6
2023-07-08T23:31:59.564Z,7
2023-07-08T23:33:13.446Z,7
2023-07-08T23:34:27.514Z,8
2023-07-08T23:35:41.695Z,7
2023-07-08T23:38:09.938Z,6
2023-07-08T23:39:24.195Z,9
2023-07-08T23:40:38.182Z,9
2023-07-08T23:43:06.454Z,8
2023-07-08T23:44:21.317Z,7
2023-07-08T23:45:35.051Z,6
2023-07-08T23:48:03.065Z,7
2023-07-08T23:49:17.097Z,9
2023-07-08T23:50:31.229Z,8